sensor_id;sensor_type;location;lat;lon;timestamp;temperature;humidity
8481;DHT22;4277;51.354;6.740;2023-12-28T00:00:15;8.90;99.90
8481;DHT22;4277;51.354;6.740;2023-12-28T00:02:41;8.80;99.90
8481;DHT22;4277;51.354;6.740;2023-12-28T00:05:06;8.80;99.90
8481;DHT22;4277;51.354;6.740;2023-12-28T00:07:32;8.80;99.90
8481;DHT22;4277;51.354;6.740;2023-12-28T00:09:57;8.70;99.90
8481;DHT22;4277;51.354;6.740;2023-12-28T00:12:23;8.70;99.90
8481;DHT22;4277;51.354;6.740;2023-12-28T00:14:48;8.70;99.90
8481;DHT22;4277;51.354;6.740;2023-12-28T00:17:14;8.80;99.90
8481;DHT22;4277;51.354;6.740;2023-12-28T00:19:40;8.80;99.90
8481;DHT22;4277;51.354;6.740;2023-12-28T00:22:05;8.80;99.90
8481;DHT22;4277;51.354;6.740;2023-12-28T00:24:31;8.90;99.90
8481;DHT22;4277;51.354;6.740;2023-12-28T00:26:56;8.80;99.90
8481;DHT22;4277;51.354;6.740;2023-12-28T00:29:22;8.90;99.90
8481;DHT22;4277;51.354;6.740;2023-12-28T00:31:47;8.90;99.90
8481;DHT22;4277;51.354;6.740;2023-12-28T00:34:13;8.90;99.90
8481;DHT22;4277;51.354;6.740;2023-12-28T00:36:38;9.00;99.90
8481;DHT22;4277;51.354;6.740;2023-12-28T00:39:04;9.00;99.90
8481;DHT22;4277;51.354;6.740;2023-12-28T00:41:29;9.00;99.90
8481;DHT22;4277;51.354;6.740;2023-12-28T00:43:55;9.10;99.90
8481;DHT22;4277;51.354;6.740;2023-12-28T00:46:20;9.00;99.90
8481;DHT22;4277;51.354;6.740;2023-12-28T00:48:46;9.10;99.90
8481;DHT22;4277;51.354;6.740;2023-12-28T00:51:11;9.10;99.90
8481;DHT22;4277;51.354;6.740;2023-12-28T00:53:37;9.10;99.90
8481;DHT22;4277;51.354;6.740;2023-12-28T00:56:02;9.10;99.90
8481;DHT22;4277;51.354;6.740;2023-12-28T00:58:28;9.10;99.90
8481;DHT22;4277;51.354;6.740;2023-12-28T01:00:53;9.10;99.90
8481;DHT22;4277;51.354;6.740;2023-12-28T01:03:21;9.20;99.90
8481;DHT22;4277;51.354;6.740;2023-12-28T01:05:46;9.10;99.90
8481;DHT22;4277;51.354;6.740;2023-12-28T01:08:16;9.10;99.90
8481;DHT22;4277;51.354;6.740;2023-12-28T01:10:42;9.20;99.90
8481;DHT22;4277;51.354;6.740;2023-12-28T01:13:07;9.10;99.90
8481;DHT22;4277;51.354;6.740;2023-12-28T01:15:33;9.20;99.90
8481;DHT22;4277;51.354;6.740;2023-12-28T01:17:58;9.20;99.90
8481;DHT22;4277;51.354;6.740;2023-12-28T01:20:24;9.10;99.90
8481;DHT22;4277;51.354;6.740;2023-12-28T01:22:49;9.10;99.90
8481;DHT22;4277;51.354;6.740;2023-12-28T01:25:15;9.10;99.90
8481;DHT22;4277;51.354;6.740;2023-12-28T01:27:41;9.10;99.90
8481;DHT22;4277;51.354;6.740;2023-12-28T01:30:07;9.10;99.90
8481;DHT22;4277;51.354;6.740;2023-12-28T01:32:32;9.10;99.90
8481;DHT22;4277;51.354;6.740;2023-12-28T01:34:58;9.10;99.90
8481;DHT22;4277;51.354;6.740;2023-12-28T01:37:23;9.10;99.90
8481;DHT22;4277;51.354;6.740;2023-12-28T01:39:49;9.10;99.90
8481;DHT22;4277;51.354;6.740;2023-12-28T01:42:15;9.10;99.90
8481;DHT22;4277;51.354;6.740;2023-12-28T01:44:40;9.10;99.90
8481;DHT22;4277;51.354;6.740;2023-12-28T01:47:06;9.10;99.90
8481;DHT22;4277;51.354;6.740;2023-12-28T01:49:32;9.10;99.90
8481;DHT22;4277;51.354;6.740;2023-12-28T01:52:00;9.10;99.90
8481;DHT22;4277;51.354;6.740;2023-12-28T01:54:26;9.10;99.90
8481;DHT22;4277;51.354;6.740;2023-12-28T01:56:52;9.10;99.90
8481;DHT22;4277;51.354;6.740;2023-12-28T01:59:18;9.20;99.90
8481;DHT22;4277;51.354;6.740;2023-12-28T02:01:44;9.10;99.90
8481;DHT22;4277;51.354;6.740;2023-12-28T02:04:10;9.20;99.90
8481;DHT22;4277;51.354;6.740;2023-12-28T02:06:36;9.20;99.90
8481;DHT22;4277;51.354;6.740;2023-12-28T02:09:01;9.10;99.90
8481;DHT22;4277;51.354;6.740;2023-12-28T02:11:27;9.10;99.90
8481;DHT22;4277;51.354;6.740;2023-12-28T02:13:53;9.10;99.90
8481;DHT22;4277;51.354;6.740;2023-12-28T02:16:36;9.10;99.90
8481;DHT22;4277;51.354;6.740;2023-12-28T02:19:42;9.10;99.90
8481;DHT22;4277;51.354;6.740;2023-12-28T02:22:00;9.10;99.90
8481;DHT22;4277;51.354;6.740;2023-12-28T02:24:26;9.10;99.90
8481;DHT22;4277;51.354;6.740;2023-12-28T02:26:51;9.10;99.90
8481;DHT22;4277;51.354;6.740;2023-12-28T02:29:18;9.10;99.90
8481;DHT22;4277;51.354;6.740;2023-12-28T02:31:51;9.20;99.90
8481;DHT22;4277;51.354;6.740;2023-12-28T02:34:29;9.20;99.90
8481;DHT22;4277;51.354;6.740;2023-12-28T02:36:56;9.20;99.90
8481;DHT22;4277;51.354;6.740;2023-12-28T02:39:24;9.20;99.90
8481;DHT22;4277;51.354;6.740;2023-12-28T02:41:50;9.20;99.90
8481;DHT22;4277;51.354;6.740;2023-12-28T02:44:15;9.20;99.90
8481;DHT22;4277;51.354;6.740;2023-12-28T02:46:41;9.10;99.90
8481;DHT22;4277;51.354;6.740;2023-12-28T02:49:06;9.10;99.90
8481;DHT22;4277;51.354;6.740;2023-12-28T02:51:32;9.10;99.90
8481;DHT22;4277;51.354;6.740;2023-12-28T02:53:57;9.10;99.90
8481;DHT22;4277;51.354;6.740;2023-12-28T02:56:23;9.10;99.90
8481;DHT22;4277;51.354;6.740;2023-12-28T02:58:48;9.10;99.90
8481;DHT22;4277;51.354;6.740;2023-12-28T03:01:14;9.10;99.90
8481;DHT22;4277;51.354;6.740;2023-12-28T03:03:39;9.20;99.90
8481;DHT22;4277;51.354;6.740;2023-12-28T03:06:05;9.20;99.90
8481;DHT22;4277;51.354;6.740;2023-12-28T03:08:30;9.20;99.90
8481;DHT22;4277;51.354;6.740;2023-12-28T03:10:56;9.20;99.90
8481;DHT22;4277;51.354;6.740;2023-12-28T03:13:21;9.20;99.90
8481;DHT22;4277;51.354;6.740;2023-12-28T03:15:47;9.20;99.90
8481;DHT22;4277;51.354;6.740;2023-12-28T03:18:12;9.20;99.90
8481;DHT22;4277;51.354;6.740;2023-12-28T03:20:38;9.30;99.90
8481;DHT22;4277;51.354;6.740;2023-12-28T03:23:03;9.30;99.90
8481;DHT22;4277;51.354;6.740;2023-12-28T03:25:29;9.30;99.90
8481;DHT22;4277;51.354;6.740;2023-12-28T03:27:55;9.30;99.90
8481;DHT22;4277;51.354;6.740;2023-12-28T03:30:20;9.40;99.90
8481;DHT22;4277;51.354;6.740;2023-12-28T03:32:46;9.40;99.90
8481;DHT22;4277;51.354;6.740;2023-12-28T03:35:11;9.40;99.90
8481;DHT22;4277;51.354;6.740;2023-12-28T03:37:37;9.40;99.90
8481;DHT22;4277;51.354;6.740;2023-12-28T03:40:03;9.40;99.90
8481;DHT22;4277;51.354;6.740;2023-12-28T03:42:29;9.40;99.90
8481;DHT22;4277;51.354;6.740;2023-12-28T03:44:54;9.40;99.90
8481;DHT22;4277;51.354;6.740;2023-12-28T03:47:20;9.50;99.90
8481;DHT22;4277;51.354;6.740;2023-12-28T03:49:45;9.40;99.90
8481;DHT22;4277;51.354;6.740;2023-12-28T03:52:11;9.40;99.90
8481;DHT22;4277;51.354;6.740;2023-12-28T03:54:36;9.40;99.90
8481;DHT22;4277;51.354;6.740;2023-12-28T03:57:02;9.40;99.90
8481;DHT22;4277;51.354;6.740;2023-12-28T03:59:28;9.40;99.90
8481;DHT22;4277;51.354;6.740;2023-12-28T04:01:53;9.40;99.90
8481;DHT22;4277;51.354;6.740;2023-12-28T04:04:19;9.40;99.90
8481;DHT22;4277;51.354;6.740;2023-12-28T04:06:44;9.40;99.90
8481;DHT22;4277;51.354;6.740;2023-12-28T04:09:13;9.40;99.90
8481;DHT22;4277;51.354;6.740;2023-12-28T04:11:38;9.40;99.90
8481;DHT22;4277;51.354;6.740;2023-12-28T04:14:04;9.40;99.90
8481;DHT22;4277;51.354;6.740;2023-12-28T04:16:29;9.40;99.90
8481;DHT22;4277;51.354;6.740;2023-12-28T04:18:55;9.40;99.90
8481;DHT22;4277;51.354;6.740;2023-12-28T04:21:21;9.40;99.90
8481;DHT22;4277;51.354;6.740;2023-12-28T04:23:47;9.40;99.90
8481;DHT22;4277;51.354;6.740;2023-12-28T04:26:13;9.50;99.90
8481;DHT22;4277;51.354;6.740;2023-12-28T04:28:39;9.50;99.90
8481;DHT22;4277;51.354;6.740;2023-12-28T04:31:05;9.50;99.90
8481;DHT22;4277;51.354;6.740;2023-12-28T04:33:31;9.50;99.90
8481;DHT22;4277;51.354;6.740;2023-12-28T04:36:04;9.50;99.90
8481;DHT22;4277;51.354;6.740;2023-12-28T04:38:30;9.50;99.90
8481;DHT22;4277;51.354;6.740;2023-12-28T04:40:57;9.50;99.90
8481;DHT22;4277;51.354;6.740;2023-12-28T04:43:22;9.50;99.90
8481;DHT22;4277;51.354;6.740;2023-12-28T04:45:49;9.50;99.90
8481;DHT22;4277;51.354;6.740;2023-12-28T04:48:15;9.50;99.90
8481;DHT22;4277;51.354;6.740;2023-12-28T04:50:40;9.50;99.90
8481;DHT22;4277;51.354;6.740;2023-12-28T04:53:06;9.50;99.90
8481;DHT22;4277;51.354;6.740;2023-12-28T04:55:31;9.50;99.90
8481;DHT22;4277;51.354;6.740;2023-12-28T04:57:57;9.50;99.90
8481;DHT22;4277;51.354;6.740;2023-12-28T05:00:22;9.50;99.90
8481;DHT22;4277;51.354;6.740;2023-12-28T05:02:48;9.50;99.90
8481;DHT22;4277;51.354;6.740;2023-12-28T05:05:13;9.50;99.90
8481;DHT22;4277;51.354;6.740;2023-12-28T05:07:39;9.50;99.90
8481;DHT22;4277;51.354;6.740;2023-12-28T05:10:05;9.50;99.90
8481;DHT22;4277;51.354;6.740;2023-12-28T05:12:31;9.50;99.90
8481;DHT22;4277;51.354;6.740;2023-12-28T05:14:56;9.50;99.90
8481;DHT22;4277;51.354;6.740;2023-12-28T05:17:22;9.50;99.90
8481;DHT22;4277;51.354;6.740;2023-12-28T05:19:47;9.50;99.90
8481;DHT22;4277;51.354;6.740;2023-12-28T05:22:13;9.50;99.90
8481;DHT22;4277;51.354;6.740;2023-12-28T05:24:38;9.60;99.90
8481;DHT22;4277;51.354;6.740;2023-12-28T05:27:04;9.60;99.90
8481;DHT22;4277;51.354;6.740;2023-12-28T05:29:29;9.60;99.90
8481;DHT22;4277;51.354;6.740;2023-12-28T05:31:55;9.60;99.90
8481;DHT22;4277;51.354;6.740;2023-12-28T05:34:20;9.60;99.90
8481;DHT22;4277;51.354;6.740;2023-12-28T05:36:46;9.60;99.90
8481;DHT22;4277;51.354;6.740;2023-12-28T05:39:12;9.60;99.90
8481;DHT22;4277;51.354;6.740;2023-12-28T05:41:40;9.70;99.90
8481;DHT22;4277;51.354;6.740;2023-12-28T05:44:07;9.70;99.90
8481;DHT22;4277;51.354;6.740;2023-12-28T05:46:32;9.60;99.90
8481;DHT22;4277;51.354;6.740;2023-12-28T05:48:58;9.60;99.90
8481;DHT22;4277;51.354;6.740;2023-12-28T05:51:23;9.60;99.90
8481;DHT22;4277;51.354;6.740;2023-12-28T05:53:49;9.60;99.90
8481;DHT22;4277;51.354;6.740;2023-12-28T05:56:14;9.70;99.90
8481;DHT22;4277;51.354;6.740;2023-12-28T05:58:40;9.70;99.90
8481;DHT22;4277;51.354;6.740;2023-12-28T06:01:06;9.60;99.90
8481;DHT22;4277;51.354;6.740;2023-12-28T06:03:32;9.60;99.90
8481;DHT22;4277;51.354;6.740;2023-12-28T06:05:57;9.70;99.90
8481;DHT22;4277;51.354;6.740;2023-12-28T06:08:23;9.70;99.90
8481;DHT22;4277;51.354;6.740;2023-12-28T06:10:49;9.70;99.90
8481;DHT22;4277;51.354;6.740;2023-12-28T06:13:14;9.70;99.90
8481;DHT22;4277;51.354;6.740;2023-12-28T06:15:40;9.70;99.90
8481;DHT22;4277;51.354;6.740;2023-12-28T06:18:06;9.70;99.90
8481;DHT22;4277;51.354;6.740;2023-12-28T06:20:31;9.70;99.90
8481;DHT22;4277;51.354;6.740;2023-12-28T06:22:57;9.70;99.90
8481;DHT22;4277;51.354;6.740;2023-12-28T06:25:23;9.70;99.90
8481;DHT22;4277;51.354;6.740;2023-12-28T06:27:48;9.60;99.90
8481;DHT22;4277;51.354;6.740;2023-12-28T06:30:14;9.70;99.90
8481;DHT22;4277;51.354;6.740;2023-12-28T06:32:40;9.70;99.90
8481;DHT22;4277;51.354;6.740;2023-12-28T06:35:06;9.70;99.90
8481;DHT22;4277;51.354;6.740;2023-12-28T06:37:31;9.60;99.90
8481;DHT22;4277;51.354;6.740;2023-12-28T06:39:57;9.70;99.90
8481;DHT22;4277;51.354;6.740;2023-12-28T06:42:22;9.60;99.90
8481;DHT22;4277;51.354;6.740;2023-12-28T06:44:48;9.60;99.90
8481;DHT22;4277;51.354;6.740;2023-12-28T06:47:13;9.60;99.90
8481;DHT22;4277;51.354;6.740;2023-12-28T06:49:39;9.60;99.90
8481;DHT22;4277;51.354;6.740;2023-12-28T06:52:05;9.60;99.90
8481;DHT22;4277;51.354;6.740;2023-12-28T06:54:30;9.60;99.90
8481;DHT22;4277;51.354;6.740;2023-12-28T06:56:56;9.60;99.90
8481;DHT22;4277;51.354;6.740;2023-12-28T06:59:21;9.60;99.90
8481;DHT22;4277;51.354;6.740;2023-12-28T07:01:47;9.60;99.90
8481;DHT22;4277;51.354;6.740;2023-12-28T07:04:14;9.60;99.90
8481;DHT22;4277;51.354;6.740;2023-12-28T07:06:39;9.60;99.90
8481;DHT22;4277;51.354;6.740;2023-12-28T07:09:05;9.60;99.90
8481;DHT22;4277;51.354;6.740;2023-12-28T07:11:31;9.60;99.90
8481;DHT22;4277;51.354;6.740;2023-12-28T07:13:56;9.70;99.90
8481;DHT22;4277;51.354;6.740;2023-12-28T07:16:22;9.70;99.90
8481;DHT22;4277;51.354;6.740;2023-12-28T07:18:48;9.70;99.90
8481;DHT22;4277;51.354;6.740;2023-12-28T07:21:13;9.70;99.90
8481;DHT22;4277;51.354;6.740;2023-12-28T07:23:39;9.70;99.90
8481;DHT22;4277;51.354;6.740;2023-12-28T07:26:05;9.70;99.90
8481;DHT22;4277;51.354;6.740;2023-12-28T07:28:31;9.70;99.90
8481;DHT22;4277;51.354;6.740;2023-12-28T07:30:57;9.80;99.90
8481;DHT22;4277;51.354;6.740;2023-12-28T07:33:22;9.70;99.90
8481;DHT22;4277;51.354;6.740;2023-12-28T07:35:48;9.80;99.90
8481;DHT22;4277;51.354;6.740;2023-12-28T07:38:14;9.80;99.90
8481;DHT22;4277;51.354;6.740;2023-12-28T07:40:40;9.80;99.90
8481;DHT22;4277;51.354;6.740;2023-12-28T07:43:06;9.80;99.90
8481;DHT22;4277;51.354;6.740;2023-12-28T07:45:32;9.80;99.90
8481;DHT22;4277;51.354;6.740;2023-12-28T07:48:01;9.80;99.90
8481;DHT22;4277;51.354;6.740;2023-12-28T07:50:27;9.80;99.90
8481;DHT22;4277;51.354;6.740;2023-12-28T07:52:53;9.80;99.90
8481;DHT22;4277;51.354;6.740;2023-12-28T07:55:18;9.80;99.90
8481;DHT22;4277;51.354;6.740;2023-12-28T07:57:44;9.90;99.90
8481;DHT22;4277;51.354;6.740;2023-12-28T08:00:11;9.90;99.90
8481;DHT22;4277;51.354;6.740;2023-12-28T08:02:36;9.90;99.90
8481;DHT22;4277;51.354;6.740;2023-12-28T08:05:03;9.90;99.90
8481;DHT22;4277;51.354;6.740;2023-12-28T08:07:29;9.70;99.90
8481;DHT22;4277;51.354;6.740;2023-12-28T08:09:54;9.80;99.90
8481;DHT22;4277;51.354;6.740;2023-12-28T08:12:20;9.90;99.90
8481;DHT22;4277;51.354;6.740;2023-12-28T08:14:46;9.80;99.90
8481;DHT22;4277;51.354;6.740;2023-12-28T08:17:12;9.90;99.90
8481;DHT22;4277;51.354;6.740;2023-12-28T08:19:38;9.90;99.90
8481;DHT22;4277;51.354;6.740;2023-12-28T08:22:03;9.90;99.90
8481;DHT22;4277;51.354;6.740;2023-12-28T08:24:29;9.90;99.90
8481;DHT22;4277;51.354;6.740;2023-12-28T08:26:55;9.90;99.90
8481;DHT22;4277;51.354;6.740;2023-12-28T08:29:25;9.90;99.90
8481;DHT22;4277;51.354;6.740;2023-12-28T08:31:51;9.90;99.90
8481;DHT22;4277;51.354;6.740;2023-12-28T08:34:16;9.90;99.90
8481;DHT22;4277;51.354;6.740;2023-12-28T08:36:42;9.90;99.90
8481;DHT22;4277;51.354;6.740;2023-12-28T08:39:08;9.90;99.90
8481;DHT22;4277;51.354;6.740;2023-12-28T08:41:33;9.90;99.90
8481;DHT22;4277;51.354;6.740;2023-12-28T08:43:59;9.90;99.90
8481;DHT22;4277;51.354;6.740;2023-12-28T08:46:25;9.90;99.90
8481;DHT22;4277;51.354;6.740;2023-12-28T08:48:51;9.90;99.90
8481;DHT22;4277;51.354;6.740;2023-12-28T08:51:17;9.90;99.90
8481;DHT22;4277;51.354;6.740;2023-12-28T08:53:42;9.90;99.90
8481;DHT22;4277;51.354;6.740;2023-12-28T08:56:19;10.00;99.90
8481;DHT22;4277;51.354;6.740;2023-12-28T08:58:46;10.00;99.90
8481;DHT22;4277;51.354;6.740;2023-12-28T09:01:19;10.00;99.90
8481;DHT22;4277;51.354;6.740;2023-12-28T09:03:51;10.00;99.90
8481;DHT22;4277;51.354;6.740;2023-12-28T09:06:17;10.00;99.90
8481;DHT22;4277;51.354;6.740;2023-12-28T09:08:44;10.10;99.90
8481;DHT22;4277;51.354;6.740;2023-12-28T09:11:11;9.90;99.90
8481;DHT22;4277;51.354;6.740;2023-12-28T09:13:39;10.10;99.90
8481;DHT22;4277;51.354;6.740;2023-12-28T09:16:07;10.10;99.90
8481;DHT22;4277;51.354;6.740;2023-12-28T09:18:33;10.10;99.90
8481;DHT22;4277;51.354;6.740;2023-12-28T09:20:59;10.10;99.90
8481;DHT22;4277;51.354;6.740;2023-12-28T09:23:24;10.20;99.90
8481;DHT22;4277;51.354;6.740;2023-12-28T09:25:50;10.20;99.90
8481;DHT22;4277;51.354;6.740;2023-12-28T09:28:15;10.20;99.90
8481;DHT22;4277;51.354;6.740;2023-12-28T09:30:41;10.20;99.90
8481;DHT22;4277;51.354;6.740;2023-12-28T09:33:07;10.30;99.90
8481;DHT22;4277;51.354;6.740;2023-12-28T09:35:32;10.30;99.90
8481;DHT22;4277;51.354;6.740;2023-12-28T09:37:58;10.30;99.90
8481;DHT22;4277;51.354;6.740;2023-12-28T09:40:24;10.30;99.90
8481;DHT22;4277;51.354;6.740;2023-12-28T09:43:15;10.30;99.90
8481;DHT22;4277;51.354;6.740;2023-12-28T09:45:47;10.30;99.90
8481;DHT22;4277;51.354;6.740;2023-12-28T09:48:15;10.30;99.90
8481;DHT22;4277;51.354;6.740;2023-12-28T09:50:42;10.30;99.90
8481;DHT22;4277;51.354;6.740;2023-12-28T09:53:07;10.30;99.90
8481;DHT22;4277;51.354;6.740;2023-12-28T09:55:33;10.40;99.90
8481;DHT22;4277;51.354;6.740;2023-12-28T09:58:00;10.40;99.90
8481;DHT22;4277;51.354;6.740;2023-12-28T10:00:26;10.40;99.90
8481;DHT22;4277;51.354;6.740;2023-12-28T10:02:52;10.40;99.90
8481;DHT22;4277;51.354;6.740;2023-12-28T10:05:18;10.40;99.90
8481;DHT22;4277;51.354;6.740;2023-12-28T10:07:44;10.50;99.90
8481;DHT22;4277;51.354;6.740;2023-12-28T10:10:10;10.50;99.90
8481;DHT22;4277;51.354;6.740;2023-12-28T10:12:37;10.50;99.90
8481;DHT22;4277;51.354;6.740;2023-12-28T10:17:29;10.60;99.90
8481;DHT22;4277;51.354;6.740;2023-12-28T10:19:54;10.60;99.90
8481;DHT22;4277;51.354;6.740;2023-12-28T10:24:53;10.60;99.90
8481;DHT22;4277;51.354;6.740;2023-12-28T10:27:19;10.60;99.90
8481;DHT22;4277;51.354;6.740;2023-12-28T10:29:44;10.60;99.90
8481;DHT22;4277;51.354;6.740;2023-12-28T10:32:10;10.50;99.90
8481;DHT22;4277;51.354;6.740;2023-12-28T10:34:35;10.50;99.90
8481;DHT22;4277;51.354;6.740;2023-12-28T10:37:01;10.60;99.90
8481;DHT22;4277;51.354;6.740;2023-12-28T10:39:31;10.60;99.90
8481;DHT22;4277;51.354;6.740;2023-12-28T10:42:00;10.50;99.90
8481;DHT22;4277;51.354;6.740;2023-12-28T10:44:32;10.60;99.90
8481;DHT22;4277;51.354;6.740;2023-12-28T10:47:01;10.60;99.90
8481;DHT22;4277;51.354;6.740;2023-12-28T10:49:28;10.60;99.90
8481;DHT22;4277;51.354;6.740;2023-12-28T10:51:55;10.60;99.90
8481;DHT22;4277;51.354;6.740;2023-12-28T10:54:52;10.60;99.90
8481;DHT22;4277;51.354;6.740;2023-12-28T10:57:44;10.60;99.90
8481;DHT22;4277;51.354;6.740;2023-12-28T11:00:21;10.60;99.90
8481;DHT22;4277;51.354;6.740;2023-12-28T11:02:50;10.60;99.90
8481;DHT22;4277;51.354;6.740;2023-12-28T11:05:19;10.50;99.90
8481;DHT22;4277;51.354;6.740;2023-12-28T11:07:47;10.40;99.90
8481;DHT22;4277;51.354;6.740;2023-12-28T11:10:19;10.50;99.90
8481;DHT22;4277;51.354;6.740;2023-12-28T11:12:45;10.50;99.90
8481;DHT22;4277;51.354;6.740;2023-12-28T11:15:13;10.50;99.90
8481;DHT22;4277;51.354;6.740;2023-12-28T11:17:40;10.40;99.90
8481;DHT22;4277;51.354;6.740;2023-12-28T11:20:07;10.40;99.90
8481;DHT22;4277;51.354;6.740;2023-12-28T11:22:33;10.50;99.90
8481;DHT22;4277;51.354;6.740;2023-12-28T11:24:59;10.60;99.90
8481;DHT22;4277;51.354;6.740;2023-12-28T11:29:51;10.80;99.90
8481;DHT22;4277;51.354;6.740;2023-12-28T11:34:45;10.90;99.90
8481;DHT22;4277;51.354;6.740;2023-12-28T11:37:17;10.90;99.90
8481;DHT22;4277;51.354;6.740;2023-12-28T11:39:49;10.90;99.90
8481;DHT22;4277;51.354;6.740;2023-12-28T11:42:19;10.90;99.90
8481;DHT22;4277;51.354;6.740;2023-12-28T11:44:46;10.80;99.90
8481;DHT22;4277;51.354;6.740;2023-12-28T11:49:43;11.00;99.90
8481;DHT22;4277;51.354;6.740;2023-12-28T11:52:25;11.00;99.90
8481;DHT22;4277;51.354;6.740;2023-12-28T11:54:52;11.00;99.90
8481;DHT22;4277;51.354;6.740;2023-12-28T11:57:17;11.00;99.90
8481;DHT22;4277;51.354;6.740;2023-12-28T11:59:43;11.00;99.90
8481;DHT22;4277;51.354;6.740;2023-12-28T12:02:10;11.00;99.90
8481;DHT22;4277;51.354;6.740;2023-12-28T12:04:36;11.00;99.90
8481;DHT22;4277;51.354;6.740;2023-12-28T12:07:02;11.00;99.90
8481;DHT22;4277;51.354;6.740;2023-12-28T12:12:00;11.10;99.90
8481;DHT22;4277;51.354;6.740;2023-12-28T12:14:26;11.10;99.90
8481;DHT22;4277;51.354;6.740;2023-12-28T12:19:22;11.10;99.90
8481;DHT22;4277;51.354;6.740;2023-12-28T12:21:48;11.00;99.90
8481;DHT22;4277;51.354;6.740;2023-12-28T12:24:17;11.00;99.90
8481;DHT22;4277;51.354;6.740;2023-12-28T12:29:09;11.10;99.90
8481;DHT22;4277;51.354;6.740;2023-12-28T21:39:16;9.70;99.90
8481;DHT22;4277;51.354;6.740;2023-12-28T21:41:42;9.70;99.90
8481;DHT22;4277;51.354;6.740;2023-12-28T21:44:08;9.70;99.90
8481;DHT22;4277;51.354;6.740;2023-12-28T21:46:34;9.80;99.90
8481;DHT22;4277;51.354;6.740;2023-12-28T21:49:00;9.70;99.90
8481;DHT22;4277;51.354;6.740;2023-12-28T21:51:26;9.80;99.90
8481;DHT22;4277;51.354;6.740;2023-12-28T21:53:51;9.80;99.90
8481;DHT22;4277;51.354;6.740;2023-12-28T21:56:17;9.80;99.90
8481;DHT22;4277;51.354;6.740;2023-12-28T21:58:44;9.80;99.90
8481;DHT22;4277;51.354;6.740;2023-12-28T22:01:09;9.80;99.90
8481;DHT22;4277;51.354;6.740;2023-12-28T22:03:35;9.90;99.90
8481;DHT22;4277;51.354;6.740;2023-12-28T22:08:27;9.90;99.90
8481;DHT22;4277;51.354;6.740;2023-12-28T22:10:53;9.90;99.90
8481;DHT22;4277;51.354;6.740;2023-12-28T22:49:51;9.90;99.90
8481;DHT22;4277;51.354;6.740;2023-12-28T22:52:16;10.10;99.90
8481;DHT22;4277;51.354;6.740;2023-12-28T22:54:42;10.10;99.90
8481;DHT22;4277;51.354;6.740;2023-12-28T22:57:07;10.10;99.90
8481;DHT22;4277;51.354;6.740;2023-12-28T22:59:33;10.10;99.90
8481;DHT22;4277;51.354;6.740;2023-12-28T23:04:25;10.10;99.90
8481;DHT22;4277;51.354;6.740;2023-12-28T23:06:51;10.10;99.90
8481;DHT22;4277;51.354;6.740;2023-12-28T23:11:43;10.10;99.90
8481;DHT22;4277;51.354;6.740;2023-12-28T23:14:08;10.10;99.90
8481;DHT22;4277;51.354;6.740;2023-12-28T23:16:34;10.10;99.90
8481;DHT22;4277;51.354;6.740;2023-12-28T23:18:59;10.10;99.90
8481;DHT22;4277;51.354;6.740;2023-12-28T23:21:25;10.10;99.90
8481;DHT22;4277;51.354;6.740;2023-12-28T23:23:50;10.10;99.90
8481;DHT22;4277;51.354;6.740;2023-12-28T23:26:20;10.10;99.90
8481;DHT22;4277;51.354;6.740;2023-12-28T23:31:12;10.10;99.90
8481;DHT22;4277;51.354;6.740;2023-12-28T23:33:39;10.10;99.90
8481;DHT22;4277;51.354;6.740;2023-12-28T23:36:05;10.10;99.90
8481;DHT22;4277;51.354;6.740;2023-12-28T23:38:34;10.10;99.90
8481;DHT22;4277;51.354;6.740;2023-12-28T23:41:00;10.10;99.90
8481;DHT22;4277;51.354;6.740;2023-12-28T23:43:25;10.10;99.90
8481;DHT22;4277;51.354;6.740;2023-12-28T23:45:51;10.10;99.90
8481;DHT22;4277;51.354;6.740;2023-12-28T23:48:18;10.10;99.90
8481;DHT22;4277;51.354;6.740;2023-12-28T23:50:43;10.10;99.90
8481;DHT22;4277;51.354;6.740;2023-12-28T23:53:09;10.10;99.90
8481;DHT22;4277;51.354;6.740;2023-12-28T23:55:34;10.10;99.90
8481;DHT22;4277;51.354;6.740;2023-12-28T23:58:00;10.10;99.90
